createdAt,value
2017-10-23T00:00:39.224Z,13.42
2017-10-23T00:01:19.746Z,13.59
2017-10-23T00:02:00.266Z,13.45
2017-10-23T00:02:40.798Z,13.57
2017-10-23T00:03:21.385Z,13.49
2017-10-23T00:04:01.947Z,13.51
2017-10-23T00:04:42.497Z,13.59
2017-10-23T00:05:23.020Z,13.55
2017-10-23T00:06:03.578Z,13.66
2017-10-23T00:06:44.144Z,13.54
2017-10-23T00:07:24.652Z,13.55
2017-10-23T00:08:05.212Z,13.55
2017-10-23T00:08:45.780Z,13.52
2017-10-23T00:09:26.338Z,13.48
2017-10-23T00:10:06.913Z,13.54
2017-10-23T00:10:47.490Z,13.54
2017-10-23T00:11:28.039Z,13.52
2017-10-23T00:12:08.642Z,13.46
2017-10-23T00:12:49.233Z,13.51
2017-10-23T00:13:30.100Z,13.39
2017-10-23T00:14:10.628Z,13.41
2017-10-23T00:14:51.122Z,13.38
2017-10-23T00:15:31.734Z,13.15
2017-10-23T00:16:12.257Z,13.23
2017-10-23T00:16:52.831Z,13.11
2017-10-23T00:17:33.339Z,13.11
2017-10-23T00:18:13.855Z,13.23
2017-10-23T00:18:54.423Z,13.28
2017-10-23T00:19:34.976Z,13.28
2017-10-23T00:20:15.496Z,13.28
2017-10-23T00:20:56.050Z,13.39
2017-10-23T00:21:36.578Z,13.15
2017-10-23T00:22:17.133Z,13.39
2017-10-23T00:22:57.657Z,13.36
2017-10-23T00:23:38.211Z,13.38
2017-10-23T00:24:18.748Z,13.28
2017-10-23T00:24:59.276Z,13.32
2017-10-23T00:25:39.809Z,13.26
2017-10-23T00:26:20.328Z,13.32
2017-10-23T00:27:00.866Z,13.36
2017-10-23T00:27:41.412Z,13.41
2017-10-23T00:28:22.042Z,13.33
2017-10-23T00:29:02.506Z,13.3
2017-10-23T00:29:43.036Z,13.42
2017-10-23T00:30:23.588Z,13.41
2017-10-23T00:31:04.116Z,13.41
2017-10-23T00:31:44.713Z,13.39
2017-10-23T00:32:25.263Z,13.28
2017-10-23T00:33:06.693Z,13.28
2017-10-23T00:33:46.394Z,13.11
2017-10-23T00:34:26.866Z,13.23
2017-10-23T00:35:07.580Z,13.33
2017-10-23T00:35:48.097Z,13.33
2017-10-23T00:36:28.610Z,13.33
2017-10-23T00:37:09.191Z,13.38
2017-10-23T00:37:49.663Z,13.38
2017-10-23T00:38:30.194Z,13.52
2017-10-23T00:39:10.712Z,13.41
2017-10-23T00:39:51.281Z,13.33
2017-10-23T00:40:31.811Z,13.3
2017-10-23T00:41:12.365Z,13.39
2017-10-23T00:41:52.917Z,13.3
2017-10-23T00:42:33.571Z,13.32
2017-10-23T00:43:14.090Z,13.36
2017-10-23T00:43:54.645Z,13.33
2017-10-23T00:44:35.157Z,13.38
2017-10-23T00:45:15.770Z,13.36
2017-10-23T00:45:56.296Z,13.32
2017-10-23T00:46:36.924Z,13.28
2017-10-23T00:47:17.356Z,13.08
2017-10-23T00:47:57.953Z,13.11
2017-10-23T00:48:38.393Z,13.14
2017-10-23T00:49:19.051Z,13.11
2017-10-23T00:49:59.593Z,13.05
2017-10-23T00:50:40.169Z,13.04
2017-10-23T00:51:20.626Z,13.1
2017-10-23T00:52:01.179Z,13.2
2017-10-23T00:52:41.862Z,13.25
2017-10-23T00:53:22.559Z,13.25
2017-10-23T00:54:02.941Z,13.32
2017-10-23T00:54:43.570Z,13.17
2017-10-23T00:55:24.724Z,13.28
2017-10-23T00:56:05.232Z,13.32
2017-10-23T00:56:45.760Z,13.33
2017-10-23T00:57:26.373Z,13.36
2017-10-23T00:58:06.967Z,13.33
2017-10-23T00:58:47.436Z,13.32
2017-10-23T00:59:27.945Z,13.33
2017-10-23T01:00:08.585Z,13.3
2017-10-23T01:00:49.105Z,13.3
2017-10-23T01:01:29.723Z,13.3
2017-10-23T01:02:10.255Z,13.33
2017-10-23T01:02:50.779Z,13.25
2017-10-23T01:03:31.331Z,13.12
2017-10-23T01:04:12.701Z,13.1
2017-10-23T01:04:52.481Z,13.17
2017-10-23T01:05:32.992Z,13.17
2017-10-23T01:06:13.690Z,13.28
2017-10-23T01:06:54.136Z,13.36
2017-10-23T01:07:35.199Z,13.39
2017-10-23T01:08:15.216Z,13.32
2017-10-23T01:08:55.819Z,13.38
2017-10-23T01:09:36.426Z,13.32
2017-10-23T01:10:17.164Z,13.25
2017-10-23T01:10:58.442Z,13.25
2017-10-23T01:11:38.985Z,13.23
2017-10-23T01:12:19.495Z,13.22
2017-10-23T01:13:00.058Z,13.23
2017-10-23T01:13:41.205Z,13.25
2017-10-23T01:14:21.251Z,13.33
2017-10-23T01:15:01.732Z,13.28
2017-10-23T01:15:42.263Z,13.29
2017-10-23T01:16:22.896Z,13.22
2017-10-23T01:17:03.532Z,13.23
2017-10-23T01:17:43.882Z,13.23
2017-10-23T01:18:24.496Z,13.2
2017-10-23T01:19:05.980Z,13.26
2017-10-23T01:19:46.527Z,13.26
2017-10-23T01:20:27.026Z,13.32
2017-10-23T01:21:07.642Z,13.15
2017-10-23T01:21:48.230Z,13.1
2017-10-23T01:22:28.736Z,13.04
2017-10-23T01:23:09.249Z,12.93
2017-10-23T01:23:49.846Z,12.9
2017-10-23T01:24:31.276Z,12.93
2017-10-23T01:25:11.831Z,12.79
2017-10-23T01:25:52.376Z,12.85
2017-10-23T01:26:33.064Z,12.93
2017-10-23T01:27:13.630Z,12.96
2017-10-23T01:27:54.323Z,13.01
2017-10-23T01:28:34.889Z,12.96
2017-10-23T01:29:15.465Z,12.82
2017-10-23T01:29:55.976Z,12.92
2017-10-23T01:30:36.527Z,12.93
2017-10-23T01:31:17.243Z,12.97
2017-10-23T01:31:57.766Z,13.05
2017-10-23T01:32:38.362Z,13
2017-10-23T01:33:18.912Z,13.08
2017-10-23T01:33:59.480Z,13.01
2017-10-23T01:34:40.018Z,12.95
2017-10-23T01:35:20.486Z,12.96
2017-10-23T01:36:01.056Z,12.96
2017-10-23T01:36:41.552Z,12.96
2017-10-23T01:37:22.314Z,13.04
2017-10-23T01:38:02.814Z,13.04
2017-10-23T01:38:43.379Z,13
2017-10-23T01:39:23.946Z,13.03
2017-10-23T01:40:04.576Z,12.97
2017-10-23T01:40:45.079Z,12.95
2017-10-23T01:41:25.686Z,13.01
2017-10-23T01:42:06.319Z,12.95
2017-10-23T01:42:46.976Z,12.95
2017-10-23T01:43:27.679Z,12.95
2017-10-23T01:44:07.869Z,12.97
2017-10-23T01:44:48.416Z,13.01
2017-10-23T01:45:29.053Z,13
2017-10-23T01:46:09.591Z,13.03
2017-10-23T01:46:50.147Z,13
2017-10-23T01:47:30.764Z,12.83
2017-10-23T01:48:11.185Z,12.82
2017-10-23T01:48:51.835Z,12.86
2017-10-23T01:49:32.455Z,12.97
2017-10-23T01:50:12.977Z,12.96
2017-10-23T01:50:53.507Z,12.96
2017-10-23T01:51:34.058Z,12.95
2017-10-23T01:52:14.653Z,12.92
2017-10-23T01:52:55.447Z,12.97
2017-10-23T01:53:35.846Z,12.96
2017-10-23T01:54:16.378Z,12.83
2017-10-23T01:54:56.870Z,12.86
2017-10-23T01:55:37.436Z,12.74
2017-10-23T01:56:17.994Z,12.67
2017-10-23T01:56:58.618Z,12.7
2017-10-23T01:57:39.184Z,12.72
2017-10-23T01:58:19.751Z,12.74
2017-10-23T01:59:00.348Z,12.86
2017-10-23T01:59:40.926Z,12.85
2017-10-23T02:00:21.495Z,12.83
2017-10-23T02:01:02.375Z,12.96
2017-10-23T02:01:42.976Z,12.97
2017-10-23T02:02:23.479Z,13
2017-10-23T02:03:03.983Z,13.03
2017-10-23T02:03:44.507Z,12.87
2017-10-23T02:04:25.052Z,12.92
2017-10-23T02:05:05.574Z,12.83
2017-10-23T02:05:46.114Z,12.89
2017-10-23T02:06:26.669Z,12.89
2017-10-23T02:07:07.303Z,12.93
2017-10-23T02:07:47.837Z,12.82
2017-10-23T02:08:28.346Z,12.79
2017-10-23T02:09:08.900Z,12.83
2017-10-23T02:09:49.411Z,12.87
2017-10-23T02:10:29.965Z,12.75
2017-10-23T02:11:10.564Z,12.87
2017-10-23T02:11:51.039Z,12.89
2017-10-23T02:12:31.578Z,12.82
2017-10-23T02:13:12.132Z,12.85
2017-10-23T02:13:52.704Z,12.87
2017-10-23T02:14:33.222Z,12.85
2017-10-23T02:15:13.739Z,12.82
2017-10-23T02:15:54.279Z,12.7
2017-10-23T02:16:34.799Z,12.83
2017-10-23T02:17:15.376Z,12.83
2017-10-23T02:17:55.855Z,12.87
2017-10-23T02:18:36.399Z,12.83
2017-10-23T02:19:16.937Z,12.87
2017-10-23T02:19:57.450Z,12.77
2017-10-23T02:20:38.118Z,12.72
2017-10-23T02:21:18.693Z,12.71
2017-10-23T02:21:59.165Z,12.6
2017-10-23T02:22:39.717Z,12.67
2017-10-23T02:23:20.296Z,12.71
2017-10-23T02:24:00.832Z,12.75
2017-10-23T02:24:41.317Z,12.71
2017-10-23T02:25:21.901Z,12.72
2017-10-23T02:26:02.393Z,12.71
2017-10-23T02:26:42.971Z,12.64
2017-10-23T02:27:23.442Z,12.7
2017-10-23T02:28:03.991Z,12.74
2017-10-23T02:28:44.496Z,12.67
2017-10-23T02:29:25.033Z,12.67
2017-10-23T02:30:05.598Z,12.72
2017-10-23T02:30:46.072Z,12.75
2017-10-23T02:31:26.611Z,12.72
2017-10-23T02:32:07.146Z,12.67
2017-10-23T02:32:47.774Z,12.59
2017-10-23T02:33:28.325Z,12.53
2017-10-23T02:34:08.850Z,12.7
2017-10-23T02:34:49.343Z,12.54
2017-10-23T02:35:29.836Z,12.65
2017-10-23T02:36:10.446Z,12.68
2017-10-23T02:36:50.897Z,12.67
2017-10-23T02:37:31.471Z,12.68
2017-10-23T02:38:12.046Z,12.82
2017-10-23T02:38:52.633Z,12.87
2017-10-23T02:39:33.126Z,12.83
2017-10-23T02:40:13.702Z,12.79
2017-10-23T02:40:54.222Z,12.79
2017-10-23T02:41:34.785Z,12.71
2017-10-23T02:42:15.297Z,12.78
2017-10-23T02:42:55.820Z,12.85
2017-10-23T02:43:36.349Z,12.79
2017-10-23T02:44:16.891Z,12.75
2017-10-23T02:44:57.410Z,12.82
2017-10-23T02:45:37.968Z,12.96
2017-10-23T02:46:18.529Z,12.95
2017-10-23T02:46:59.163Z,13.1
2017-10-23T02:47:39.682Z,13.04
2017-10-23T02:48:20.254Z,13.1
2017-10-23T02:49:00.804Z,13.03
2017-10-23T02:49:41.365Z,13
2017-10-23T02:50:21.871Z,13.07
2017-10-23T02:51:02.442Z,12.97
2017-10-23T02:51:43.066Z,12.97
2017-10-23T02:52:23.594Z,12.96
2017-10-23T02:53:04.244Z,13.03
2017-10-23T02:53:44.718Z,13
2017-10-23T02:54:25.306Z,12.89
2017-10-23T02:55:05.875Z,12.78
2017-10-23T02:55:47.265Z,12.97
2017-10-23T02:56:26.916Z,13.03
2017-10-23T02:57:08.274Z,13.01
2017-10-23T02:57:48.827Z,13.1
2017-10-23T02:58:29.395Z,13.03
2017-10-23T02:59:10.012Z,12.97
2017-10-23T02:59:50.465Z,12.95
2017-10-23T03:00:31.147Z,12.96
2017-10-23T03:01:11.582Z,13.05
2017-10-23T03:01:52.157Z,13.01
2017-10-23T03:02:32.673Z,12.95
2017-10-23T03:03:13.214Z,13
2017-10-23T03:03:53.707Z,12.95
2017-10-23T03:04:34.289Z,12.96
2017-10-23T03:05:15.008Z,12.74
2017-10-23T03:05:55.422Z,12.85
2017-10-23T03:06:37.158Z,12.82
2017-10-23T03:07:17.737Z,12.93
2017-10-23T03:07:58.761Z,12.87
2017-10-23T03:08:38.827Z,12.97
2017-10-23T03:09:19.402Z,12.96
2017-10-23T03:09:59.922Z,13.03
2017-10-23T03:10:40.451Z,13.01
2017-10-23T03:11:20.985Z,12.79
2017-10-23T03:12:01.480Z,12.92
2017-10-23T03:12:42.051Z,12.82
2017-10-23T03:13:22.663Z,12.85
2017-10-23T03:14:03.263Z,12.79
2017-10-23T03:14:43.808Z,12.78
2017-10-23T03:15:24.306Z,12.68
2017-10-23T03:16:04.888Z,12.77
2017-10-23T03:16:45.416Z,12.96
2017-10-23T03:17:26.031Z,12.9
2017-10-23T03:18:06.549Z,12.93
2017-10-23T03:18:47.088Z,12.82
2017-10-23T03:19:27.668Z,12.82
2017-10-23T03:20:09.761Z,12.78
2017-10-23T03:20:50.270Z,12.79
2017-10-23T03:21:30.589Z,12.93
2017-10-23T03:22:11.130Z,12.95
2017-10-23T03:22:51.709Z,12.93
2017-10-23T03:23:32.768Z,12.95
2017-10-23T03:24:12.945Z,12.97
2017-10-23T03:24:54.767Z,12.96
2017-10-23T03:25:34.619Z,12.97
2017-10-23T03:26:15.860Z,12.96
2017-10-23T03:26:58.035Z,12.83
2017-10-23T03:27:39.293Z,12.83
2017-10-23T03:28:19.827Z,12.89
2017-10-23T03:29:00.332Z,12.83
2017-10-23T03:29:42.771Z,12.79
2017-10-23T03:30:22.472Z,12.82
2017-10-23T03:31:03.038Z,12.79
2017-10-23T03:31:43.618Z,12.96
2017-10-23T03:32:25.025Z,12.85
2017-10-23T03:33:05.695Z,12.83
2017-10-23T03:33:46.210Z,12.85
2017-10-23T03:34:27.289Z,12.82
2017-10-23T03:35:09.274Z,12.72
2017-10-23T03:35:49.769Z,12.86
2017-10-23T03:36:29.601Z,12.9
2017-10-23T03:37:11.120Z,12.82
2017-10-23T03:37:52.269Z,12.77
2017-10-23T03:38:32.767Z,12.78
2017-10-23T03:39:13.302Z,12.77
2017-10-23T03:39:53.837Z,12.68
2017-10-23T03:40:36.288Z,12.72
2017-10-23T03:41:17.268Z,12.89
2017-10-23T03:41:59.956Z,12.97
2017-10-23T03:42:41.305Z,12.83
2017-10-23T03:43:21.883Z,12.87
2017-10-23T03:44:04.770Z,12.74
2017-10-23T03:44:45.282Z,12.83
2017-10-23T03:45:24.965Z,12.86
2017-10-23T03:46:06.280Z,12.74
2017-10-23T03:46:47.661Z,12.75
2017-10-23T03:47:28.801Z,12.72
2017-10-23T03:48:09.414Z,12.72
2017-10-23T03:48:50.624Z,12.75
2017-10-23T03:49:31.166Z,12.85
2017-10-23T03:50:11.754Z,12.85
2017-10-23T03:50:53.016Z,12.67
2017-10-23T03:51:35.297Z,12.85
2017-10-23T03:52:16.430Z,12.83
2017-10-23T03:52:56.910Z,12.87
2017-10-23T03:53:38.082Z,12.77
2017-10-23T03:54:19.380Z,12.71
2017-10-23T03:54:59.896Z,12.89
2017-10-23T03:55:41.149Z,12.79
2017-10-23T03:56:22.394Z,12.77
2017-10-23T03:57:04.281Z,12.82
2017-10-23T03:57:44.024Z,12.74
2017-10-23T03:58:24.549Z,12.79
2017-10-23T03:59:05.161Z,12.71
2017-10-23T03:59:46.408Z,12.78
2017-10-23T04:00:27.019Z,12.79
2017-10-23T04:01:07.530Z,12.72
2017-10-23T04:01:48.155Z,12.68
2017-10-23T04:02:28.631Z,12.75
2017-10-23T04:03:09.161Z,12.74
2017-10-23T04:03:49.675Z,12.68
2017-10-23T04:04:30.140Z,12.64
2017-10-23T04:05:10.678Z,12.68
2017-10-23T04:05:51.216Z,12.65
2017-10-23T04:06:31.734Z,12.71
2017-10-23T04:07:12.352Z,12.65
2017-10-23T04:07:52.934Z,12.71
2017-10-23T04:08:33.362Z,12.75
2017-10-23T04:09:13.919Z,12.74
2017-10-23T04:09:54.427Z,12.67
2017-10-23T04:10:34.931Z,12.64
2017-10-23T04:11:15.520Z,12.75
2017-10-23T04:11:56.039Z,12.72
2017-10-23T04:12:36.541Z,12.67
2017-10-23T04:13:17.108Z,12.62
2017-10-23T04:13:57.666Z,12.64
2017-10-23T04:14:38.236Z,12.67
2017-10-23T04:15:18.775Z,12.7
2017-10-23T04:15:59.315Z,12.64
2017-10-23T04:16:39.887Z,12.6
2017-10-23T04:17:20.366Z,12.65
2017-10-23T04:18:01.044Z,12.62
2017-10-23T04:18:41.604Z,12.67
2017-10-23T04:19:22.370Z,12.74
2017-10-23T04:20:02.771Z,12.71
2017-10-23T04:20:43.326Z,12.74
2017-10-23T04:21:23.884Z,12.65
2017-10-23T04:22:04.458Z,12.71
2017-10-23T04:22:45.030Z,12.71
2017-10-23T04:23:25.550Z,12.71
2017-10-23T04:24:06.110Z,12.86
2017-10-23T04:24:46.658Z,12.83
2017-10-23T04:25:27.250Z,12.9
2017-10-23T04:26:07.734Z,12.78
2017-10-23T04:26:48.387Z,12.82
2017-10-23T04:27:28.927Z,12.93
2017-10-23T04:28:09.376Z,12.89
2017-10-23T04:28:49.943Z,13.01
2017-10-23T04:29:30.457Z,13.01
2017-10-23T04:30:10.979Z,12.97
2017-10-23T04:30:51.549Z,12.82
2017-10-23T04:31:32.085Z,12.75
2017-10-23T04:32:12.646Z,12.74
2017-10-23T04:32:53.134Z,12.83
2017-10-23T04:33:33.739Z,12.79
2017-10-23T04:34:14.254Z,12.93
2017-10-23T04:34:54.790Z,12.95
2017-10-23T04:35:35.354Z,13.03
2017-10-23T04:36:15.840Z,12.93
2017-10-23T04:36:56.414Z,12.97
2017-10-23T04:37:36.966Z,12.96
2017-10-23T04:38:17.515Z,12.85
2017-10-23T04:38:58.046Z,12.83
2017-10-23T04:39:38.610Z,12.87
2017-10-23T04:40:19.129Z,12.82
2017-10-23T04:40:59.671Z,12.71
2017-10-23T04:41:40.240Z,12.72
2017-10-23T04:42:20.708Z,12.83
2017-10-23T04:43:01.314Z,12.85
2017-10-23T04:43:41.771Z,12.85
2017-10-23T04:44:22.357Z,12.92
2017-10-23T04:45:02.915Z,12.92
2017-10-23T04:45:43.415Z,12.95
2017-10-23T04:46:23.932Z,12.92
2017-10-23T04:47:04.511Z,12.9
2017-10-23T04:47:45.090Z,12.89
2017-10-23T04:48:25.577Z,12.97
2017-10-23T04:49:06.093Z,13.03
2017-10-23T04:49:46.644Z,12.95
2017-10-23T04:50:27.143Z,13.03
2017-10-23T04:51:07.695Z,13.01
2017-10-23T04:51:48.296Z,13.08
2017-10-23T04:52:28.837Z,13.11
2017-10-23T04:53:09.368Z,13.1
2017-10-23T04:53:49.861Z,13.1
2017-10-23T04:54:30.489Z,13.07
2017-10-23T04:55:10.976Z,13.08
2017-10-23T04:55:51.494Z,13.23
2017-10-23T04:56:32.016Z,13.1
2017-10-23T04:57:12.697Z,13.1
2017-10-23T04:57:53.200Z,13.23
2017-10-23T04:58:33.698Z,13.26
2017-10-23T04:59:14.334Z,13.26
2017-10-23T04:59:54.786Z,13.23
2017-10-23T05:00:35.307Z,13.19
2017-10-23T05:01:15.876Z,13.11
2017-10-23T05:01:56.309Z,13.04
2017-10-23T05:02:36.873Z,13.07
2017-10-23T05:03:17.373Z,13.14
2017-10-23T05:03:57.911Z,13.11
2017-10-23T05:04:38.423Z,13.12
2017-10-23T05:05:18.987Z,13.2
2017-10-23T05:05:59.537Z,13.1
2017-10-23T05:06:40.004Z,13.04
2017-10-23T05:07:20.554Z,13.01
2017-10-23T05:08:01.134Z,12.96
2017-10-23T05:08:41.665Z,13.03
2017-10-23T05:09:22.204Z,13.1
2017-10-23T05:10:02.762Z,13.12
2017-10-23T05:10:43.324Z,13.07
2017-10-23T05:11:23.846Z,13.03
2017-10-23T05:12:04.375Z,13.07
2017-10-23T05:12:44.952Z,13.03
2017-10-23T05:13:25.501Z,13.08
2017-10-23T05:14:06.033Z,13.07
2017-10-23T05:14:46.577Z,13.12
2017-10-23T05:15:27.133Z,13.04
2017-10-23T05:16:07.699Z,13
2017-10-23T05:16:48.259Z,13
2017-10-23T05:17:28.764Z,12.96
2017-10-23T05:18:09.276Z,12.82
2017-10-23T05:18:49.843Z,12.87
2017-10-23T05:19:30.367Z,12.85
2017-10-23T05:20:10.881Z,12.71
2017-10-23T05:20:51.407Z,12.7
2017-10-23T05:21:32.018Z,12.74
2017-10-23T05:22:12.501Z,12.71
2017-10-23T05:22:53.139Z,12.75
2017-10-23T05:26:02.153Z,12.95
2017-10-23T05:26:42.738Z,12.92
2017-10-23T05:27:23.300Z,12.96
2017-10-23T05:28:03.975Z,13
2017-10-23T05:28:44.513Z,12.83
2017-10-23T05:29:25.058Z,12.93
2017-10-23T05:30:05.619Z,12.86
2017-10-23T05:30:46.182Z,12.85
2017-10-23T05:31:26.685Z,13.01
2017-10-23T05:32:07.253Z,13
2017-10-23T05:32:47.757Z,13.03
2017-10-23T05:33:28.299Z,13
2017-10-23T05:34:08.856Z,13
2017-10-23T05:34:49.361Z,12.97
2017-10-23T05:35:29.893Z,12.96
2017-10-23T05:36:10.443Z,12.79
2017-10-23T05:36:51.002Z,12.77
2017-10-23T05:37:31.549Z,12.89
2017-10-23T05:38:12.097Z,12.97
2017-10-23T05:38:52.655Z,13.08
2017-10-23T05:39:33.198Z,13.07
2017-10-23T05:40:13.701Z,13.12
2017-10-23T05:40:54.242Z,13.14
2017-10-23T05:41:34.770Z,13.2
2017-10-23T05:42:15.305Z,13.05
2017-10-23T05:42:55.863Z,13.08
2017-10-23T05:43:36.379Z,13.14
2017-10-23T05:44:16.904Z,13.07
2017-10-23T05:44:57.431Z,13.08
2017-10-23T05:45:37.961Z,13.15
2017-10-23T05:46:18.534Z,13.11
2017-10-23T05:46:59.073Z,13.11
2017-10-23T05:47:39.594Z,13.1
2017-10-23T05:48:20.123Z,13.08
2017-10-23T05:49:00.705Z,13.12
2017-10-23T05:49:41.251Z,13.12
2017-10-23T05:50:21.780Z,13.29
2017-10-23T05:51:02.289Z,13.26
2017-10-23T05:51:42.859Z,13.36
2017-10-23T05:52:23.420Z,13.49
2017-10-23T05:53:03.980Z,13.57
2017-10-23T05:53:44.546Z,13.54
2017-10-23T05:54:25.086Z,13.63
2017-10-23T05:55:05.640Z,13.62
2017-10-23T05:55:46.160Z,13.69
2017-10-23T05:56:26.762Z,13.71
2017-10-23T05:57:07.225Z,13.64
2017-10-23T05:57:47.744Z,13.82
2017-10-23T05:58:28.307Z,13.78
2017-10-23T05:59:08.842Z,13.77
2017-10-23T05:59:49.347Z,13.78
2017-10-23T06:00:29.902Z,13.89
2017-10-23T06:01:10.431Z,13.82
2017-10-23T06:01:50.947Z,13.82
2017-10-23T06:02:31.465Z,13.88
2017-10-23T06:03:12.216Z,13.99
2017-10-23T06:03:52.781Z,14.03
2017-10-23T06:04:33.360Z,13.92
2017-10-23T06:05:13.898Z,13.96
2017-10-23T06:05:54.478Z,13.91
2017-10-23T06:06:35.200Z,13.75
2017-10-23T06:07:15.698Z,13.84
2017-10-23T06:07:57.651Z,13.88
2017-10-23T06:08:37.566Z,14.15
2017-10-23T06:09:19.156Z,14.47
2017-10-23T06:10:00.390Z,14.55
2017-10-23T06:10:41.932Z,14.21
2017-10-23T06:11:23.312Z,14.25
2017-10-23T06:12:03.878Z,14.62
2017-10-23T06:12:45.152Z,14.62
2017-10-23T06:13:24.950Z,14.17
2017-10-23T06:14:05.840Z,14.06
2017-10-23T06:14:46.890Z,14.46
2017-10-23T06:15:27.466Z,14.37
2017-10-23T06:16:08.029Z,14.5
2017-10-23T06:16:48.575Z,14.25
2017-10-23T06:17:29.090Z,14
2017-10-23T06:18:10.167Z,13.97
2017-10-23T06:18:51.155Z,13.89
2017-10-23T06:19:32.170Z,13.88
2017-10-23T06:20:12.174Z,13.89
2017-10-23T06:20:53.659Z,14.02
2017-10-23T06:21:34.663Z,14.37
2017-10-23T06:22:18.944Z,14.84
2017-10-23T06:23:00.415Z,15.06
2017-10-23T06:23:40.961Z,15.02
2017-10-23T06:24:22.745Z,14.61
2017-10-23T06:25:03.317Z,14.88
2017-10-23T06:25:44.230Z,14.55
2017-10-23T06:26:24.779Z,14.69
2017-10-23T06:27:05.426Z,14.43
2017-10-23T06:27:45.989Z,14.28
2017-10-23T06:28:27.398Z,14.29
2017-10-23T06:29:07.953Z,14.28
2017-10-23T06:29:48.503Z,14.52
2017-10-23T06:30:29.058Z,14.36
2017-10-23T06:31:09.584Z,14.37
2017-10-23T06:31:51.664Z,14.55
2017-10-23T06:32:31.322Z,14.32
2017-10-23T06:33:13.177Z,14.37
2017-10-23T06:33:52.970Z,14.51
2017-10-23T06:34:35.663Z,14.6
2017-10-23T06:35:14.705Z,14.35
2017-10-23T06:35:56.178Z,14.29
2017-10-23T06:36:35.779Z,14.21
2017-10-23T06:37:16.305Z,14.36
2017-10-23T06:37:56.939Z,14.39
2017-10-23T06:38:38.332Z,14.47
2017-10-23T06:39:20.676Z,14.52
2017-10-23T06:40:01.168Z,14.61
2017-10-23T06:40:41.679Z,14.62
2017-10-23T06:41:21.896Z,14.47
2017-10-23T06:42:03.222Z,14.68
2017-10-23T06:42:44.712Z,14.73
2017-10-23T06:43:25.309Z,14.73
2017-10-23T06:44:05.823Z,14.6
2017-10-23T06:44:47.177Z,14.46
2017-10-23T06:45:27.577Z,14.43
2017-10-23T06:46:08.101Z,14.57
2017-10-23T06:46:48.744Z,14.54
2017-10-23T06:47:29.229Z,14.47
2017-10-23T06:48:11.669Z,14.46
2017-10-23T06:48:52.690Z,14.37
2017-10-23T06:49:32.296Z,14.5
2017-10-23T06:50:12.875Z,14.37
2017-10-23T06:50:54.666Z,14.4
2017-10-23T06:51:37.685Z,14.51
2017-10-23T06:52:19.671Z,14.51
2017-10-23T06:52:59.671Z,14.43
2017-10-23T06:53:40.343Z,14.54
2017-10-23T06:54:20.925Z,14.61
2017-10-23T06:55:02.180Z,14.64
2017-10-23T06:55:42.065Z,14.64
2017-10-23T06:56:22.569Z,14.61
2017-10-23T06:57:03.143Z,14.75
2017-10-23T06:57:44.170Z,14.69
2017-10-23T06:58:25.051Z,14.73
2017-10-23T06:59:06.527Z,14.69
2017-10-23T06:59:47.108Z,14.52
2017-10-23T07:00:27.631Z,14.55
2017-10-23T07:01:08.151Z,14.58
2017-10-23T07:01:49.361Z,14.62
2017-10-23T07:02:30.067Z,14.65
2017-10-23T07:03:10.560Z,14.73
2017-10-23T07:03:52.192Z,14.78
2017-10-23T07:04:32.134Z,14.73
2017-10-23T07:05:14.181Z,14.81
2017-10-23T07:05:54.683Z,14.77
2017-10-23T07:06:34.561Z,14.64
2017-10-23T07:07:15.681Z,14.7
2017-10-23T07:07:56.176Z,14.81
2017-10-23T07:08:37.676Z,14.77
2017-10-23T07:09:17.543Z,14.81
2017-10-23T07:09:58.680Z,14.81
2017-10-23T07:10:38.596Z,14.89
2017-10-23T07:11:20.179Z,14.81
2017-10-23T07:12:00.793Z,14.95
2017-10-23T07:12:42.679Z,15.03
2017-10-23T07:13:22.744Z,15.2
2017-10-23T07:14:06.208Z,15.28
2017-10-23T07:14:47.688Z,15.27
2017-10-23T07:15:29.173Z,15.06
2017-10-23T07:16:08.827Z,15.25
2017-10-23T07:16:49.477Z,15.36
2017-10-23T07:17:30.815Z,15.35
2017-10-23T07:18:12.364Z,15.21
2017-10-23T07:18:53.691Z,15.19
2017-10-23T07:19:34.325Z,15.28
2017-10-23T07:20:14.844Z,15.35
2017-10-23T07:20:55.366Z,15.19
2017-10-23T07:21:35.944Z,15.35
2017-10-23T07:22:16.526Z,15.39
2017-10-23T07:22:57.835Z,15.38
2017-10-23T07:23:38.358Z,15.32
2017-10-23T07:24:19.432Z,15.41
2017-10-23T07:24:59.997Z,15.39
2017-10-23T07:25:40.589Z,15.36
2017-10-23T07:26:21.678Z,15.34
2017-10-23T07:27:02.922Z,15.53
2017-10-23T07:27:43.469Z,15.87
2017-10-23T07:28:24.721Z,16.02
2017-10-23T07:29:06.202Z,16.28
2017-10-23T07:29:47.692Z,16.42
2017-10-23T07:30:27.306Z,16.24
2017-10-23T07:31:07.838Z,16.23
2017-10-23T07:31:50.206Z,15.93
2017-10-23T07:32:30.690Z,15.93
2017-10-23T07:33:11.189Z,16.08
2017-10-23T07:33:54.179Z,16
2017-10-23T07:34:36.198Z,15.74
2017-10-23T07:35:17.701Z,15.9
2017-10-23T07:35:58.686Z,15.9
2017-10-23T07:36:38.601Z,15.86
2017-10-23T07:37:20.680Z,15.97
2017-10-23T07:38:00.905Z,15.89
2017-10-23T07:38:42.200Z,15.84
2017-10-23T07:39:23.183Z,15.74
2017-10-23T07:40:03.715Z,15.74
2017-10-23T07:40:45.194Z,15.86
2017-10-23T07:41:24.786Z,15.9
2017-10-23T07:42:08.692Z,15.93
2017-10-23T07:42:49.974Z,15.97
2017-10-23T07:43:31.041Z,16.04
2017-10-23T07:44:12.188Z,16
2017-10-23T07:44:52.692Z,16
2017-10-23T07:45:33.847Z,15.82
2017-10-23T07:46:15.191Z,15.65
2017-10-23T07:46:57.188Z,15.6
2017-10-23T07:47:37.138Z,15.72
2017-10-23T07:48:17.661Z,15.76
2017-10-23T07:48:59.040Z,15.64
2017-10-23T07:49:41.189Z,15.62
2017-10-23T07:50:21.699Z,15.74
2017-10-23T07:51:02.838Z,15.83
2017-10-23T07:51:44.269Z,15.78
2017-10-23T07:52:25.693Z,15.89
2017-10-23T07:53:06.118Z,15.78
2017-10-23T07:53:47.703Z,15.75
2017-10-23T07:54:28.688Z,15.72
2017-10-23T07:55:08.271Z,15.67
2017-10-23T07:55:52.494Z,15.71
2017-10-23T07:56:34.676Z,15.54
2017-10-23T07:57:15.198Z,15.5
2017-10-23T07:57:58.202Z,15.59
2017-10-23T07:58:38.689Z,15.53
2017-10-23T07:59:19.235Z,15.5
2017-10-23T08:00:00.532Z,15.44
2017-10-23T08:00:41.575Z,15.46
2017-10-23T08:01:23.701Z,15.64
2017-10-23T08:02:03.754Z,15.47
2017-10-23T08:02:45.696Z,15.57
2017-10-23T08:03:26.698Z,15.74
2017-10-23T08:04:11.919Z,15.74
2017-10-23T08:04:52.504Z,15.8
2017-10-23T08:05:34.218Z,15.57
2017-10-23T08:06:14.126Z,15.46
2017-10-23T08:06:54.625Z,15.5
2017-10-23T08:07:35.389Z,15.5
2017-10-23T08:08:16.122Z,15.57
2017-10-23T08:08:56.665Z,15.51
2017-10-23T08:09:37.873Z,15.5
2017-10-23T08:10:18.397Z,15.67
2017-10-23T08:11:00.199Z,15.82
2017-10-23T08:11:40.702Z,15.94
2017-10-23T08:12:21.709Z,16.02
2017-10-23T08:13:03.210Z,16.09
2017-10-23T08:13:44.198Z,16.17
2017-10-23T08:14:24.009Z,16.12
2017-10-23T08:15:04.566Z,16.21
2017-10-23T08:15:45.123Z,16.14
2017-10-23T08:16:26.210Z,16.17
2017-10-23T08:17:08.413Z,16.17
2017-10-23T08:17:50.334Z,16.07
2017-10-23T08:18:31.562Z,16.2
2017-10-23T08:19:13.720Z,16.12
2017-10-23T08:19:54.207Z,15.93
2017-10-23T08:20:35.781Z,15.93
2017-10-23T08:21:20.709Z,16.05
2017-10-23T08:22:01.778Z,16.08
2017-10-23T08:22:42.283Z,16.07
2017-10-23T08:23:23.209Z,16.15
2017-10-23T08:24:05.197Z,16.21
2017-10-23T08:24:45.705Z,16.17
2017-10-23T08:25:25.192Z,16.15
2017-10-23T08:26:06.212Z,16.15
2017-10-23T08:26:47.723Z,16.08
2017-10-23T08:27:30.040Z,16.11
2017-10-23T08:28:14.204Z,16.17
2017-10-23T08:28:54.203Z,15.92
2017-10-23T08:29:35.700Z,15.83
2017-10-23T08:30:17.002Z,15.8
2017-10-23T08:31:00.199Z,15.78
2017-10-23T08:31:40.206Z,15.89
2017-10-23T08:32:21.686Z,16.02
2017-10-23T08:33:02.885Z,16.01
2017-10-23T08:33:44.073Z,16.09
2017-10-23T08:34:27.705Z,16.21
2017-10-23T08:35:09.211Z,16.25
2017-10-23T08:35:51.207Z,16.31
2017-10-23T08:36:33.210Z,16.24
2017-10-23T08:37:13.715Z,16.31
2017-10-23T08:37:55.859Z,16.3
2017-10-23T08:38:37.708Z,16.43
2017-10-23T08:39:19.262Z,16.5
2017-10-23T08:40:00.227Z,16.41
2017-10-23T08:40:42.709Z,16.25
2017-10-23T08:41:24.143Z,16.24
2017-10-23T08:42:05.708Z,16.34
2017-10-23T08:42:47.601Z,16.31
2017-10-23T08:43:30.217Z,16.43
2017-10-23T08:44:11.708Z,16.48
2017-10-23T08:44:52.788Z,16.52
2017-10-23T08:45:36.208Z,16.5
2017-10-23T08:46:17.501Z,16.46
2017-10-23T08:46:59.728Z,16.46
2017-10-23T08:47:41.216Z,16.38
2017-10-23T08:48:21.709Z,16.41
2017-10-23T08:49:02.322Z,16.25
2017-10-23T08:49:44.557Z,16.24
2017-10-23T08:50:25.758Z,16.12